Observation data for Hart on 11/17/2019      Previous  Date       Current Mesonet Observations  Soil Data  Daily Summary Page  Observations in Plain Language
KHRS 170600Z 22005KT 05/00 A2997 RMK A01 T00500001  RH  071%=      5-min Rain = 0
KHRS 170605Z 24006KT 05/00 A2998 RMK A01 T00460000  RH  073%=      5-min Rain = 0
KHRS 170610Z 25006KT 04/00 A2998 RMK A01 T00430001  RH  075%=      5-min Rain = 0
KHRS 170615Z 26005KT 05/00 A2998 RMK A01 T00450001  RH  074%=      5-min Rain = 0
KHRS 170620Z 28005KT 04/M00 A2998 RMK A01 T00411002  RH  074%=      5-min Rain = 0
KHRS 170625Z 30007KT 04/M00 A2998 RMK A01 T00391001  RH  076%=      5-min Rain = 0
KHRS 170630Z 30008KT 04/M00 A2998 RMK A01 T00381001  RH  077%=      5-min Rain = 0
KHRS 170635Z 30009KT 04/00 A2999 RMK A01 T00390002  RH  078%=      5-min Rain = 0
KHRS 170640Z 31009KT 05/01 A2999 RMK A01 T00460007  RH  076%=      5-min Rain = 0
KHRS 170645Z 32008KT 05/01 A2999 RMK A01 T00480005  RH  075%=      5-min Rain = 0
KHRS 170650Z 32006KT 05/01 A2999 RMK A01 T00480006  RH  075%=      5-min Rain = 0
KHRS 170655Z 31007KT 05/01 A2999 RMK A01 T00480006  RH  075%=      5-min Rain = 0
KHRS 170700Z 31008KT 05/01 A2999 RMK A01 T00490008  RH  075%=      5-min Rain = 0
KHRS 170705Z 32010KT 05/01 A2999 RMK A01 T00530008  RH  074%=      5-min Rain = 0
KHRS 170710Z 33009KT 06/01 A2999 RMK A01 T00560007  RH  072%=      5-min Rain = 0
KHRS 170715Z 33008KT 06/01 A2999 RMK A01 T00560006  RH  071%=      5-min Rain = 0
KHRS 170720Z 34008KT 06/01 A2999 RMK A01 T00580007  RH  071%=      5-min Rain = 0
KHRS 170725Z 34009KT 06/01 A2999 RMK A01 T00610008  RH  069%=      5-min Rain = 0
KHRS 170730Z 34009KT 06/01 A2999 RMK A01 T00620010  RH  070%=      5-min Rain = 0
KHRS 170735Z 34011KT 06/01 A2999 RMK A01 T00630009  RH  069%=      5-min Rain = 0
KHRS 170740Z 34012KT 07/01 A2999 RMK A01 T00660010  RH  068%=      5-min Rain = 0
KHRS 170745Z 35013KT 07/01 A2999 RMK A01 T00690009  RH  067%=      5-min Rain = 0
KHRS 170750Z 35015KT 07/01 A2999 RMK A01 T00710010  RH  066%=      5-min Rain = 0
KHRS 170755Z 35017G23KT 08/01 A2999 RMK A01 T00760009  RH  063%=      5-min Rain = 0
KHRS 170800Z 36019KT 08/01 A2999 RMK A01 T00820005  RH  059%=      5-min Rain = 0
KHRS 170805Z 36021G27KT 09/00 A30 RMK A01 T00860002  RH  056%=      5-min Rain = 0
KHRS 170810Z 36024G33KT 09/M00 A30 RMK A01 T00911002  RH  053%=      5-min Rain = 0
KHRS 170815Z 36024G30KT 09/M00 A30 RMK A01 T00931004  RH  051%=      5-min Rain = 0
KHRS 170820Z 36024G31KT 09/M01 A30 RMK A01 T00921005  RH  051%=      5-min Rain = 0
KHRS 170825Z 00024G30KT 09/M01 A3001 RMK A01 T00921007  RH  051%=      5-min Rain = 0
KHRS 170830Z 36023G30KT 09/M01 A3001 RMK A01 T00901007  RH  051%=      5-min Rain = 0
KHRS 170835Z 36024G29KT 09/M01 A3001 RMK A01 T00891009  RH  051%=      5-min Rain = 0
KHRS 170840Z 36023KT 09/M01 A3002 RMK A01 T00871009  RH  051%=      5-min Rain = 0
KHRS 170845Z 36023G29KT 09/M01 A3002 RMK A01 T00861010  RH  051%=      5-min Rain = 0
KHRS 170850Z 36023KT 09/M01 A3002 RMK A01 T00871010  RH  051%=      5-min Rain = 0
KHRS 170855Z 36022G29KT 09/M01 A3002 RMK A01 T00851010  RH  052%=      5-min Rain = 0
KHRS 170900Z 36021G29KT 08/M01 A3003 RMK A01 T00831010  RH  053%=      5-min Rain = 0
KHRS 170905Z 35022G27KT 08/M01 A3003 RMK A01 T00831010  RH  052%=      5-min Rain = 0
KHRS 170910Z 35023G30KT 08/M01 A3004 RMK A01 T00821010  RH  053%=      5-min Rain = 0
KHRS 170915Z 35022G28KT 08/M01 A3004 RMK A01 T00801009  RH  054%=      5-min Rain = 0
KHRS 170920Z 35026G31KT 08/M01 A3005 RMK A01 T00791007  RH  055%=      5-min Rain = 0
KHRS 170925Z 35026G35KT 08/M01 A3005 RMK A01 T00781006  RH  056%=      5-min Rain = 0
KHRS 170930Z 35024G29KT 08/M01 A3005 RMK A01 T00761006  RH  057%=      5-min Rain = 0
KHRS 170935Z 36023G29KT 07/M00 A3005 RMK A01 T00741004  RH  058%=      5-min Rain = 0
KHRS 170940Z 00021G27KT 07/M00 A3005 RMK A01 T00731003  RH  059%=      5-min Rain = 0
KHRS 170945Z 00021G26KT 07/M00 A3005 RMK A01 T00711003  RH  060%=      5-min Rain = 0
KHRS 170950Z 01019G25KT 07/M00 A3005 RMK A01 T00691002  RH  061%=      5-min Rain = 0
KHRS 170955Z 00019G25KT 07/M00 A3005 RMK A01 T00681002  RH  062%=      5-min Rain = 0
KHRS 171000Z 00019G24KT 07/M00 A3006 RMK A01 T00661002  RH  062%=      5-min Rain = 0
KHRS 171005Z 00019G25KT 06/M00 A3006 RMK A01 T00641002  RH  063%=      5-min Rain = 0
KHRS 171010Z 36018G24KT 06/M00 A3006 RMK A01 T00631002  RH  064%=      5-min Rain = 0
KHRS 171015Z 00018G24KT 06/M00 A3007 RMK A01 T00611002  RH  064%=      5-min Rain = 0
KHRS 171020Z 00019KT 06/M00 A3007 RMK A01 T00611001  RH  065%=      5-min Rain = 0
KHRS 171025Z 00017KT 06/M00 A3007 RMK A01 T00591001  RH  066%=      5-min Rain = 0
KHRS 171030Z 00018KT 06/M00 A3008 RMK A01 T00591001  RH  066%=      5-min Rain = 0
KHRS 171035Z 00018KT 06/M00 A3008 RMK A01 T00581001  RH  067%=      5-min Rain = 0
KHRS 171040Z 00017KT 06/00 A3008 RMK A01 T00570000  RH  068%=      5-min Rain = 0
KHRS 171045Z 36018KT 06/00 A3008 RMK A01 T00560001  RH  068%=      5-min Rain = 0
KHRS 171050Z 00017G22KT 06/00 A3009 RMK A01 T00550001  RH  069%=      5-min Rain = 0
KHRS 171055Z 00016G21KT 05/00 A3009 RMK A01 T00540002  RH  070%=      5-min Rain = 0
KHRS 171100Z 00016KT 05/00 A3009 RMK A01 T00530002  RH  071%=      5-min Rain = 0
KHRS 171105Z 00017KT 05/00 A3009 RMK A01 T00520003  RH  071%=      5-min Rain = 0
KHRS 171110Z 00016KT 05/00 A301 RMK A01 T00520003  RH  072%=      5-min Rain = 0
KHRS 171115Z 00017KT 05/00 A301 RMK A01 T00510004  RH  072%=      5-min Rain = 0
KHRS 171120Z 00017KT 05/00 A301 RMK A01 T00510004  RH  073%=      5-min Rain = 0
KHRS 171125Z 01018KT 05/01 A301 RMK A01 T00520005  RH  073%=      5-min Rain = 0
KHRS 171130Z 00018KT 05/01 A3011 RMK A01 T00510005  RH  073%=      5-min Rain = 0
KHRS 171135Z 00016G21KT 05/01 A3011 RMK A01 T00500006  RH  074%=      5-min Rain = 0
KHRS 171140Z 00016G21KT 05/01 A3011 RMK A01 T00490006  RH  075%=      5-min Rain = 0
KHRS 171145Z 36016G21KT 05/01 A3012 RMK A01 T00470005  RH  075%=      5-min Rain = 0
KHRS 171150Z 36016KT 05/01 A3012 RMK A01 T00450005  RH  076%=      5-min Rain = 0
KHRS 171155Z 36016G22KT 05/01 A3012 RMK A01 T00450005  RH  076%=      5-min Rain = 0
KHRS 171200Z 36017KT 05/01 A3012 RMK A01 T00450006  RH  076%=      5-min Rain = 0
KHRS 171205Z 00017KT 05/01 A3012 RMK A01 T00450006  RH  077%=      5-min Rain = 0
KHRS 171210Z 00016G21KT 05/01 A3013 RMK A01 T00450006  RH  077%=      5-min Rain = 0
KHRS 171215Z 00016KT 04/01 A3013 RMK A01 T00440007  RH  077%=      5-min Rain = 0
KHRS 171220Z 00016KT 04/01 A3013 RMK A01 T00440007  RH  078%=      5-min Rain = 0
KHRS 171225Z 00016G21KT 05/01 A3014 RMK A01 T00450007  RH  077%=      5-min Rain = 0
KHRS 171230Z 00017KT 05/01 A3014 RMK A01 T00450007  RH  077%=      5-min Rain = 0
KHRS 171235Z 00016KT 05/01 A3014 RMK A01 T00450007  RH  077%=      5-min Rain = 0
KHRS 171240Z 36016KT 04/01 A3014 RMK A01 T00430006  RH  078%=      5-min Rain = 0
KHRS 171245Z 36018KT 04/01 A3014 RMK A01 T00420006  RH  078%=      5-min Rain = 0
KHRS 171250Z 36018KT 04/01 A3015 RMK A01 T00410005  RH  078%=      5-min Rain = 0
KHRS 171255Z 36017G22KT 04/01 A3015 RMK A01 T00400005  RH  079%=      5-min Rain = 0
KHRS 171300Z 36017KT 04/01 A3015 RMK A01 T00390005  RH  079%=      5-min Rain = 0
KHRS 171305Z 36018G23KT 04/01 A3015 RMK A01 T00390005  RH  080%=      5-min Rain = 0
KHRS 171310Z 00016G21KT 04/01 A3016 RMK A01 T00380005  RH  080%=      5-min Rain = 0
KHRS 171315Z 36016KT 04/01 A3016 RMK A01 T00370006  RH  081%=      5-min Rain = 0
KHRS 171320Z 36015KT 04/01 A3016 RMK A01 T00360005  RH  081%=      5-min Rain = 0
KHRS 171325Z 36016KT 04/01 A3016 RMK A01 T00350006  RH  082%=      5-min Rain = 0
KHRS 171330Z 36015KT 04/01 A3017 RMK A01 T00350006  RH  082%=      5-min Rain = 0
KHRS 171335Z 36016KT 03/01 A3017 RMK A01 T00340006  RH  083%=      5-min Rain = 0
KHRS 171340Z 00017G22KT 04/01 A3017 RMK A01 T00350007  RH  083%=      5-min Rain = 0
KHRS 171345Z 00016KT 04/01 A3017 RMK A01 T00360008  RH  083%=      5-min Rain = 0
KHRS 171350Z 00015G20KT 04/01 A3018 RMK A01 T00370009  RH  083%=      5-min Rain = 0
KHRS 171355Z 00014KT 04/01 A3018 RMK A01 T00380010  RH  083%=      5-min Rain = 0
KHRS 171400Z 01014KT 04/01 A3018 RMK A01 T00390010  RH  083%=      5-min Rain = 0
KHRS 171405Z 01013KT 04/01 A3018 RMK A01 T00400011  RH  082%=      5-min Rain = 0
KHRS 171410Z 01013KT 04/01 A3019 RMK A01 T00410012  RH  082%=      5-min Rain = 0
KHRS 171415Z 01013KT 04/01 A3019 RMK A01 T00430012  RH  082%=      5-min Rain = 0
KHRS 171420Z 01013KT 04/01 A3019 RMK A01 T00440013  RH  081%=      5-min Rain = 0
KHRS 171425Z 00014KT 05/01 A3019 RMK A01 T00460014  RH  081%=      5-min Rain = 0
KHRS 171430Z 01014KT 05/02 A3019 RMK A01 T00470015  RH  081%=      5-min Rain = 0
KHRS 171435Z 01015G20KT 05/02 A3019 RMK A01 T00490016  RH  080%=      5-min Rain = 0
KHRS 171440Z 01016KT 05/02 A3019 RMK A01 T00510017  RH  079%=      5-min Rain = 0
KHRS 171445Z 01014KT 05/02 A3019 RMK A01 T00540018  RH  079%=      5-min Rain = 0
KHRS 171450Z 01014G19KT 06/02 A3019 RMK A01 T00560020  RH  078%=      5-min Rain = 0
KHRS 171455Z 01014KT 06/02 A302 RMK A01 T00580021  RH  078%=      5-min Rain = 0
KHRS 171500Z 01015KT 06/02 A302 RMK A01 T00600022  RH  077%=      5-min Rain = 0
KHRS 171505Z 01016KT 06/02 A302 RMK A01 T00620022  RH  076%=      5-min Rain = 0
KHRS 171510Z 01014G19KT 06/02 A302 RMK A01 T00640023  RH  076%=      5-min Rain = 0
KHRS 171515Z 01015KT 07/02 A302 RMK A01 T00660024  RH  075%=      5-min Rain = 0
KHRS 171520Z 01013KT 07/03 A302 RMK A01 T00690027  RH  075%=      5-min Rain = 0
KHRS 171525Z 01015KT 07/03 A3021 RMK A01 T00700026  RH  075%=      5-min Rain = 0
KHRS 171530Z 02015KT 07/03 A3021 RMK A01 T00720027  RH  074%=      5-min Rain = 0
KHRS 171535Z 01017G22KT 07/03 A3021 RMK A01 T00720027  RH  074%=      5-min Rain = 0
KHRS 171540Z 02017KT 07/03 A3021 RMK A01 T00730026  RH  073%=      5-min Rain = 0
KHRS 171545Z 01017KT 08/03 A3021 RMK A01 T00760029  RH  073%=      5-min Rain = 0
KHRS 171550Z 01018G23KT 08/03 A302 RMK A01 T00780029  RH  072%=      5-min Rain = 0
KHRS 171555Z 02018KT 08/03 A302 RMK A01 T00780027  RH  071%=      5-min Rain = 0
KHRS 171600Z 02017G22KT 08/03 A302 RMK A01 T00800029  RH  071%=      5-min Rain = 0
KHRS 171605Z 02015KT 08/03 A302 RMK A01 T00820032  RH  072%=      5-min Rain = 0
KHRS 171610Z 02017KT 08/03 A302 RMK A01 T00830030  RH  070%=      5-min Rain = 0
KHRS 171615Z 02016KT 08/03 A3021 RMK A01 T00840031  RH  070%=      5-min Rain = 0
KHRS 171620Z 01016KT 09/03 A3021 RMK A01 T00870032  RH  069%=      5-min Rain = 0
KHRS 171625Z 01015KT 09/03 A3021 RMK A01 T00870031  RH  069%=      5-min Rain = 0
KHRS 171630Z 01013KT 09/03 A3021 RMK A01 T00890031  RH  068%=      5-min Rain = 0
KHRS 171635Z 01012KT 09/03 A3021 RMK A01 T00930034  RH  068%=      5-min Rain = 0
KHRS 171640Z 02011KT 10/04 A3021 RMK A01 T00960036  RH  067%=      5-min Rain = 0
KHRS 171645Z 01011KT 10/04 A3021 RMK A01 T00980036  RH  066%=      5-min Rain = 0
KHRS 171650Z 01012KT 10/03 A3021 RMK A01 T00980034  RH  065%=      5-min Rain = 0
KHRS 171655Z 02011KT 10/04 A3021 RMK A01 T00990035  RH  065%=      5-min Rain = 0
KHRS 171700Z 01010KT 10/04 A302 RMK A01 T01010035  RH  064%=      5-min Rain = 0
KHRS 171705Z 00012KT 10/03 A302 RMK A01 T01010034  RH  064%=      5-min Rain = 0
KHRS 171710Z 00013KT 10/03 A302 RMK A01 T01030033  RH  063%=      5-min Rain = 0
KHRS 171715Z 01012KT 10/03 A3019 RMK A01 T01030032  RH  062%=      5-min Rain = 0
KHRS 171720Z 36012KT 10/03 A3019 RMK A01 T01040033  RH  062%=      5-min Rain = 0
KHRS 171725Z 01010KT 11/03 A3019 RMK A01 T01060033  RH  061%=      5-min Rain = 0
KHRS 171730Z 00011KT 11/03 A3019 RMK A01 T01080033  RH  061%=      5-min Rain = 0
KHRS 171735Z 36010KT 11/03 A3019 RMK A01 T01080031  RH  060%=      5-min Rain = 0
KHRS 171740Z 01011KT 11/04 A3019 RMK A01 T01090035  RH  061%=      5-min Rain = 0
KHRS 171745Z 00011G16KT 11/03 A3019 RMK A01 T01110033  RH  059%=      5-min Rain = 0
KHRS 171750Z 00011KT 11/03 A3019 RMK A01 T01110033  RH  059%=      5-min Rain = 0
KHRS 171755Z 01011G16KT 11/03 A3019 RMK A01 T01120034  RH  060%=      5-min Rain = 0
KHRS 171800Z 01011G16KT 11/03 A3019 RMK A01 T01130034  RH  059%=      5-min Rain = 0
KHRS 171805Z 02012KT 11/04 A3019 RMK A01 T01130036  RH  060%=      5-min Rain = 0
KHRS 171810Z 01011G16KT 12/04 A3019 RMK A01 T01150035  RH  059%=      5-min Rain = 0
KHRS 171815Z 01011KT 12/04 A3019 RMK A01 T01150036  RH  059%=      5-min Rain = 0
KHRS 171820Z 01012KT 12/04 A3018 RMK A01 T01190038  RH  058%=      5-min Rain = 0
KHRS 171825Z 01012KT 12/04 A3018 RMK A01 T01200038  RH  058%=      5-min Rain = 0
KHRS 171830Z 01012KT 12/04 A3018 RMK A01 T01200039  RH  058%=      5-min Rain = 0
KHRS 171835Z 35013G19KT 12/03 A3018 RMK A01 T01220032  RH  055%=      5-min Rain = 0
KHRS 171840Z 36012G17KT 12/04 A3018 RMK A01 T01230036  RH  056%=      5-min Rain = 0
KHRS 171845Z 01012KT 13/04 A3018 RMK A01 T01250040  RH  057%=      5-min Rain = 0
KHRS 171850Z 00014KT 13/04 A3018 RMK A01 T01250038  RH  056%=      5-min Rain = 0
KHRS 171855Z 01014KT 12/04 A3017 RMK A01 T01230036  RH  056%=      5-min Rain = 0
KHRS 171900Z 01012G17KT 12/04 A3017 RMK A01 T01230036  RH  056%=      5-min Rain = 0
KHRS 171905Z 36013KT 12/03 A3017 RMK A01 T01240033  RH  054%=      5-min Rain = 0
KHRS 171910Z 02012KT 12/04 A3017 RMK A01 T01240036  RH  055%=      5-min Rain = 0
KHRS 171915Z 01011KT 13/04 A3016 RMK A01 T01270037  RH  055%=      5-min Rain = 0
KHRS 171920Z 02008KT 13/03 A3016 RMK A01 T01280032  RH  053%=      5-min Rain = 0
KHRS 171925Z 02008KT 13/03 A3015 RMK A01 T01300033  RH  052%=      5-min Rain = 0
KHRS 171930Z 01008KT 13/03 A3015 RMK A01 T01300027  RH  050%=      5-min Rain = 0
KHRS 171935Z 02008G13KT 13/03 A3014 RMK A01 T01290032  RH  052%=      5-min Rain = 0
KHRS 171940Z 02008G13KT 13/03 A3014 RMK A01 T01300030  RH  051%=      5-min Rain = 0
KHRS 171945Z 03005KT 13/03 A3014 RMK A01 T01310026  RH  050%=      5-min Rain = 0
KHRS 171950Z 34004KT 13/02 A3014 RMK A01 T01320022  RH  048%=      5-min Rain = 0
KHRS 171955Z 00006G11KT 13/02 A3014 RMK A01 T01330022  RH  047%=      5-min Rain = 0
KHRS 172000Z 35009KT 14/02 A3013 RMK A01 T01350021  RH  047%=      5-min Rain = 0
KHRS 172005Z 35004KT 13/02 A3013 RMK A01 T01330019  RH  047%=      5-min Rain = 0
KHRS 172010Z 02004KT 13/02 A3013 RMK A01 T01320021  RH  047%=      5-min Rain = 0
KHRS 172015Z 36005KT 14/02 A3012 RMK A01 T01350020  RH  046%=      5-min Rain = 0
KHRS 172020Z 01004KT 14/02 A3012 RMK A01 T01360019  RH  046%=      5-min Rain = 0
KHRS 172025Z 35003KT 14/02 A3012 RMK A01 T01390019  RH  045%=      5-min Rain = 0
KHRS 172030Z 01004KT 14/02 A3012 RMK A01 T01390021  RH  045%=      5-min Rain = 0
KHRS 172035Z 01005KT 14/02 A3012 RMK A01 T01390024  RH  046%=      5-min Rain = 0
KHRS 172040Z 01004KT 14/02 A3011 RMK A01 T01390020  RH  045%=      5-min Rain = 0
KHRS 172045Z 01005KT 14/02 A3011 RMK A01 T01400019  RH  044%=      5-min Rain = 0
KHRS 172050Z 02003KT 14/02 A3011 RMK A01 T01390017  RH  044%=      5-min Rain = 0
KHRS 172055Z 06003KT 14/02 A3011 RMK A01 T01410016  RH  043%=      5-min Rain = 0
KHRS 172100Z 06004KT 14/02 A3011 RMK A01 T01410016  RH  043%=      5-min Rain = 0
KHRS 172105Z 05003KT 14/02 A3011 RMK A01 T01410016  RH  043%=      5-min Rain = 0
KHRS 172110Z 02005KT 14/02 A3011 RMK A01 T01420022  RH  045%=      5-min Rain = 0
KHRS 172115Z 02005KT 14/02 A301 RMK A01 T01400023  RH  045%=      5-min Rain = 0
KHRS 172120Z 01003KT 14/02 A301 RMK A01 T01410017  RH  043%=      5-min Rain = 0
KHRS 172125Z 33003KT 14/02 A301 RMK A01 T01400015  RH  043%=      5-min Rain = 0
KHRS 172130Z 02004KT 14/02 A301 RMK A01 T01410017  RH  044%=      5-min Rain = 0
KHRS 172135Z 05002KT 14/02 A301 RMK A01 T01400015  RH  043%=      5-min Rain = 0
KHRS 172140Z 33001KT 14/01 A301 RMK A01 T01420014  RH  042%=      5-min Rain = 0
KHRS 172145Z 04003KT 14/02 A301 RMK A01 T01440017  RH  042%=      5-min Rain = 0
KHRS 172150Z 05003KT 14/01 A301 RMK A01 T01420014  RH  042%=      5-min Rain = 0
KHRS 172155Z 04002KT 14/02 A301 RMK A01 T01410015  RH  043%=      5-min Rain = 0
KHRS 172200Z 30001KT 14/01 A301 RMK A01 T01440014  RH  042%=      5-min Rain = 0
KHRS 172205Z 33002KT 14/01 A301 RMK A01 T01440010  RH  041%=      5-min Rain = 0
KHRS 172210Z 35001KT 14/01 A301 RMK A01 T01430011  RH  041%=      5-min Rain = 0
KHRS 172215Z 02001KT 15/01 A301 RMK A01 T01450013  RH  041%=      5-min Rain = 0
KHRS 172220Z 04001KT 14/01 A301 RMK A01 T01440011  RH  041%=      5-min Rain = 0
KHRS 172225Z 35001KT 14/01 A301 RMK A01 T01440011  RH  041%=      5-min Rain = 0
KHRS 172230Z 36002KT 14/01 A301 RMK A01 T01440009  RH  040%=      5-min Rain = 0
KHRS 172235Z 35001KT 14/01 A301 RMK A01 T01420009  RH  041%=      5-min Rain = 0
KHRS 172240Z 00000KT 15/01 A3011 RMK A01 T01450009  RH  040%=      5-min Rain = 0
KHRS 172245Z 17001KT 15/01 A3011 RMK A01 T01470009  RH  039%=      5-min Rain = 0
KHRS 172250Z 17001KT 15/01 A3011 RMK A01 T01490009  RH  039%=      5-min Rain = 0
KHRS 172255Z 32001KT 15/01 A3011 RMK A01 T01470008  RH  039%=      5-min Rain = 0
KHRS 172300Z 31003KT 14/01 A3011 RMK A01 T01410007  RH  040%=      5-min Rain = 0
KHRS 172305Z 27002KT 14/01 A3011 RMK A01 T01400007  RH  041%=      5-min Rain = 0
KHRS 172310Z 26001KT 14/01 A3011 RMK A01 T01410008  RH  041%=      5-min Rain = 0
KHRS 172315Z 25002KT 14/01 A3011 RMK A01 T01410008  RH  041%=      5-min Rain = 0
KHRS 172320Z 26002KT 14/01 A3011 RMK A01 T01370007  RH  042%=      5-min Rain = 0
KHRS 172325Z 27002KT 13/01 A3011 RMK A01 T01330007  RH  043%=      5-min Rain = 0
KHRS 172330Z 25001KT 13/01 A3011 RMK A01 T01300007  RH  043%=      5-min Rain = 0
KHRS 172335Z 25001KT 13/01 A3011 RMK A01 T01260006  RH  044%=      5-min Rain = 0
KHRS 172340Z 23002KT 12/01 A3011 RMK A01 T01200007  RH  046%=      5-min Rain = 0
KHRS 172345Z 22003KT 12/01 A3011 RMK A01 T01150005  RH  047%=      5-min Rain = 0
KHRS 172350Z 22002KT 11/00 A3011 RMK A01 T01090004  RH  049%=      5-min Rain = 0
KHRS 172355Z 22003KT 10/00 A3011 RMK A01 T01040004  RH  051%=      5-min Rain = 0
KHRS 180000Z 22003KT 10/00 A3011 RMK A01 T01010004  RH  052%=      5-min Rain = 0
KHRS 180005Z 21004KT 10/01 A3011 RMK A01 T00990005  RH  052%=      5-min Rain = 0
KHRS 180010Z 21004KT 10/01 A3011 RMK A01 T00950005  RH  054%=      5-min Rain = 0
KHRS 180015Z 21004KT 09/01 A3011 RMK A01 T00900007  RH  057%=      5-min Rain = 0
KHRS 180020Z 21004KT 09/01 A3011 RMK A01 T00880009  RH  058%=      5-min Rain = 0
KHRS 180025Z 20004KT 09/01 A301 RMK A01 T00870011  RH  059%=      5-min Rain = 0
KHRS 180030Z 19004KT 09/01 A301 RMK A01 T00880010  RH  059%=      5-min Rain = 0
KHRS 180035Z 19004KT 09/01 A3011 RMK A01 T00900008  RH  057%=      5-min Rain = 0
KHRS 180040Z 19004KT 09/01 A3011 RMK A01 T00880007  RH  057%=      5-min Rain = 0
KHRS 180045Z 19004KT 09/01 A3011 RMK A01 T00880010  RH  059%=      5-min Rain = 0
KHRS 180050Z 19005KT 09/01 A3011 RMK A01 T00860010  RH  059%=      5-min Rain = 0
KHRS 180055Z 19004KT 09/01 A301 RMK A01 T00850010  RH  060%=      5-min Rain = 0
KHRS 180100Z 18003KT 09/01 A3011 RMK A01 T00860009  RH  059%=      5-min Rain = 0
KHRS 180105Z 18003KT 09/01 A301 RMK A01 T00860009  RH  059%=      5-min Rain = 0
KHRS 180110Z 18002KT 08/01 A3011 RMK A01 T00810009  RH  061%=      5-min Rain = 0
KHRS 180115Z 18002KT 08/01 A3011 RMK A01 T00750012  RH  065%=      5-min Rain = 0
KHRS 180120Z 18002KT 07/01 A3011 RMK A01 T00720011  RH  066%=      5-min Rain = 0
KHRS 180125Z 18003KT 07/01 A3011 RMK A01 T00680009  RH  067%=      5-min Rain = 0
KHRS 180130Z 18003KT 07/01 A3011 RMK A01 T00680010  RH  067%=      5-min Rain = 0
KHRS 180135Z 18003KT 07/01 A3011 RMK A01 T00690008  RH  066%=      5-min Rain = 0
KHRS 180140Z 18003KT 07/01 A3011 RMK A01 T00690007  RH  065%=      5-min Rain = 0
KHRS 180145Z 18003KT 07/01 A3011 RMK A01 T00690006  RH  065%=      5-min Rain = 0
KHRS 180150Z 18002KT 07/00 A3011 RMK A01 T00670003  RH  065%=      5-min Rain = 0
KHRS 180155Z 17002KT 06/00 A3011 RMK A01 T00620004  RH  067%=      5-min Rain = 0
KHRS 180200Z 17002KT 06/01 A3011 RMK A01 T00590008  RH  071%=      5-min Rain = 0
KHRS 180205Z 16002KT 06/01 A3011 RMK A01 T00570014  RH  075%=      5-min Rain = 0
KHRS 180210Z 16002KT 05/02 A3011 RMK A01 T00520016  RH  078%=      5-min Rain = 0
KHRS 180215Z 16002KT 05/01 A3011 RMK A01 T00460014  RH  081%=      5-min Rain = 0
KHRS 180220Z 16003KT 04/02 A3011 RMK A01 T00440016  RH  083%=      5-min Rain = 0
KHRS 180225Z 15003KT 04/02 A3011 RMK A01 T00440018  RH  084%=      5-min Rain = 0
KHRS 180230Z 16003KT 05/02 A3011 RMK A01 T00450018  RH  084%=      5-min Rain = 0
KHRS 180235Z 17004KT 05/02 A3011 RMK A01 T00520018  RH  079%=      5-min Rain = 0
KHRS 180240Z 17004KT 06/01 A3011 RMK A01 T00570013  RH  074%=      5-min Rain = 0
KHRS 180245Z 16004KT 06/01 A3011 RMK A01 T00610010  RH  071%=      5-min Rain = 0
KHRS 180250Z 16004KT 06/01 A3011 RMK A01 T00620009  RH  069%=      5-min Rain = 0
KHRS 180255Z 17005KT 07/01 A3011 RMK A01 T00650009  RH  068%=      5-min Rain = 0
KHRS 180300Z 18005KT 07/01 A3011 RMK A01 T00690008  RH  066%=      5-min Rain = 0
KHRS 180305Z 18005KT 07/01 A3011 RMK A01 T00690007  RH  066%=      5-min Rain = 0
KHRS 180310Z 17005KT 07/01 A3011 RMK A01 T00680008  RH  066%=      5-min Rain = 0
KHRS 180315Z 18004KT 07/01 A3011 RMK A01 T00660006  RH  066%=      5-min Rain = 0
KHRS 180320Z 18003KT 06/00 A3011 RMK A01 T00600003  RH  067%=      5-min Rain = 0
KHRS 180325Z 18004KT 05/00 A3011 RMK A01 T005400-0  RH  069%=      5-min Rain = 0
KHRS 180330Z 18004KT 05/M00 A3011 RMK A01 T00471004  RH  070%=      5-min Rain = 0
KHRS 180335Z 18003KT 04/M00 A3011 RMK A01 T00431003  RH  073%=      5-min Rain = 0
KHRS 180340Z 18003KT 05/00 A3011 RMK A01 T00450003  RH  075%=      5-min Rain = 0
KHRS 180345Z 18003KT 05/00 A3011 RMK A01 T00460003  RH  075%=      5-min Rain = 0
KHRS 180350Z 18003KT 04/00 A3011 RMK A01 T00440001  RH  074%=      5-min Rain = 0
KHRS 180355Z 18003KT 05/00 A3012 RMK A01 T00450004  RH  076%=      5-min Rain = 0
KHRS 180400Z 18002KT 04/M00 A3012 RMK A01 T00421001  RH  074%=      5-min Rain = 0
KHRS 180405Z 19002KT 04/M00 A3011 RMK A01 T00391002  RH  075%=      5-min Rain = 0
KHRS 180410Z 19002KT 04/M00 A3011 RMK A01 T00371002  RH  076%=      5-min Rain = 0
KHRS 180415Z 19003KT 04/M00 A3011 RMK A01 T00371001  RH  077%=      5-min Rain = 0
KHRS 180420Z 19003KT 04/00 A301 RMK A01 T00390001  RH  077%=      5-min Rain = 0
KHRS 180425Z 19003KT 04/M00 A301 RMK A01 T00381002  RH  076%=      5-min Rain = 0
KHRS 180430Z 20003KT 03/M01 A301 RMK A01 T00341008  RH  075%=      5-min Rain = 0
KHRS 180435Z 20004KT 03/M01 A301 RMK A01 T00301009  RH  076%=      5-min Rain = 0
KHRS 180440Z 21004KT 03/M01 A301 RMK A01 T00261011  RH  078%=      5-min Rain = 0
KHRS 180445Z 22003KT 02/M01 A301 RMK A01 T00221013  RH  079%=      5-min Rain = 0
KHRS 180450Z 22003KT 02/M01 A301 RMK A01 T00201013  RH  080%=      5-min Rain = 0
KHRS 180455Z 21003KT 02/M01 A301 RMK A01 T00211010  RH  081%=      5-min Rain = 0
KHRS 180500Z 21004KT 02/M01 A301 RMK A01 T00221009  RH  081%=      5-min Rain = 0
KHRS 180505Z 21004KT 02/M01 A3009 RMK A01 T00201013  RH  080%=      5-min Rain = 0
KHRS 180510Z 22004KT 02/M02 A3009 RMK A01 T00151017  RH  080%=      5-min Rain = 0
KHRS 180515Z 22005KT 01/M02 A3009 RMK A01 T00131015  RH  082%=      5-min Rain = 0
KHRS 180520Z 22005KT 02/M01 A3009 RMK A01 T00161010  RH  084%=      5-min Rain = 0
KHRS 180525Z 22006KT 02/M01 A3009 RMK A01 T00161012  RH  083%=      5-min Rain = 0
KHRS 180530Z 22006KT 02/M01 A3008 RMK A01 T00191007  RH  084%=      5-min Rain = 0
KHRS 180535Z 22006KT 02/M01 A3008 RMK A01 T00211008  RH  082%=      5-min Rain = 0
KHRS 180540Z 22008KT 02/M01 A3008 RMK A01 T00191011  RH  082%=      5-min Rain = 0
KHRS 180545Z 22008KT 02/M01 A3008 RMK A01 T00161012  RH  083%=      5-min Rain = 0
KHRS 180550Z 22007KT 02/M01 A3008 RMK A01 T00161011  RH  083%=      5-min Rain = 0
KHRS 180555Z 22008KT 02/M01 A3007 RMK A01 T00161012  RH  083%=      5-min Rain = 0

Page generated in 0.0097 seconds.